James E. Brown — WDH9622 — position and weather

sailwx.info

Track history (hours):
 
Tides and Currents Weather Stations Pressure Air Temp Water Temp Dewpoint Dewpoint Depression Visibility Wind Speed Wind Dir Waves Ship Positions

James E. Brown

Owner: Thomas J. Brown and Sons, Inc., Statten Island, NY. More information available from US FCC via Universal Licensing System and Coast Guard Vessel Documentation Center.

Last reported at 2018-Jun-22 11:57 UTC. Time now 2018-Jun-23 17:32 UTC.
Position N 40°38' W 074°12'.

Length 19 m; draft 4 m.

Type: Tug. MMSI: 367669920.

Date/timePositionNaut miles runAvg speedWind from/ knotsBaromVisibWave heightAir tempDewpointWater temp
2018-Jun-22 11:57N 40°38' W 074°12'1 2.6
2018-Jun-22 11:29N 40°39' W 074°11'1 1.7
2018-Jun-22 10:57N 40°38' W 074°10'1 0.1
2018-Jun-21 16:48N 40°39' W 074°08'2 7.1
2018-Jun-21 16:31N 40°39' W 074°05'2 3.6
2018-Jun-21 16:00N 40°41' W 074°04'1 2.5
2018-Jun-21 15:30N 40°40' W 074°03'1 3.0
2018-Jun-21 15:01N 40°39' W 074°02'0 0.0
2018-Jun-21 14:30N 40°39' W 074°02'2 3.8
2018-Jun-21 14:01N 40°40' W 074°04'1 1.7
2018-Jun-21 13:31N 40°41' W 074°04'0 0.0
2018-Jun-21 13:01N 40°41' W 074°04'2 3.3
2018-Jun-21 12:31N 40°40' W 074°03'1 2.4
2018-Jun-21 12:01N 40°39' W 074°02'0 0.8
2018-Jun-21 11:30N 40°39' W 074°02'2 4.7
2018-Jun-21 11:01N 40°41' W 074°04'0 0.8
2018-Jun-21 10:30N 40°40' W 074°04'3 6.8
2018-Jun-21 10:00N 40°39' W 074°08'2 0.1
2018-Jun-20 18:54N 40°39' W 074°06'3 8.4
2018-Jun-20 18:30N 40°40' W 074°02'0 0.7
2018-Jun-20 18:00N 40°40' W 074°02'4 7.1
2018-Jun-20 17:29N 40°39' W 074°07'4 6.0
2018-Jun-20 16:52N 40°39' W 074°11'1 3.0
2018-Jun-20 16:27N 40°39' W 074°10'0 0.6
2018-Jun-20 16:00N 40°38' W 074°10'0 0.0
2018-Jun-20 15:31N 40°38' W 074°10'0 0.6
2018-Jun-20 15:00N 40°38' W 074°09'0 0.3
2018-Jun-20 14:30N 40°39' W 074°09'0 0.3
2018-Jun-20 13:51N 40°39' W 074°09'3 8.1
2018-Jun-20 13:30N 40°39' W 074°05'2 3.7
2018-Jun-20 13:00N 40°41' W 074°04'1 2.7
2018-Jun-20 12:30N 40°40' W 074°03'1 2.9
2018-Jun-20 12:00N 40°39' W 074°02'0 0.1
2018-Jun-20 11:30N 40°39' W 074°02'3 5.1
2018-Jun-20 11:00N 40°41' W 074°04'1 1.5
2018-Jun-20 10:30N 40°40' W 074°04'4 7.6
2018-Jun-20 10:00N 40°38' W 074°09'0 0.0
2018-Jun-19 14:56N 40°38' W 074°09'3 7.6
2018-Jun-19 14:30N 40°39' W 074°05'1 2.9
2018-Jun-19 14:00N 40°41' W 074°04'2 3.3
2018-Jun-19 13:30N 40°40' W 074°03'1 2.2
2018-Jun-19 13:00N 40°39' W 074°02'0 0.0
2018-Jun-19 12:30N 40°39' W 074°02'2 3.2
2018-Jun-19 12:00N 40°40' W 074°03'1 2.4
2018-Jun-19 11:30N 40°41' W 074°04'1 1.6
2018-Jun-19 11:00N 40°40' W 074°04'4 8.0
2018-Jun-19 10:30N 40°38' W 074°09'1 1.4
2018-Jun-19 10:00N 40°38' W 074°10'1 0.1
2018-Jun-18 16:50N 40°39' W 074°09'3 8.7
2018-Jun-18 16:30N 40°39' W 074°05'2 3.4
2018-Jun-18 16:00N 40°41' W 074°04'3 5.1
2018-Jun-18 15:30N 40°39' W 074°02'0 0.3
2018-Jun-18 14:55N 40°39' W 074°02'1 2.5
2018-Jun-18 14:30N 40°40' W 074°03'2 3.5
2018-Jun-18 14:00N 40°41' W 074°04'0 0.0
2018-Jun-18 13:30N 40°41' W 074°04'2 4.0
2018-Jun-18 13:00N 40°39' W 074°02'1 1.3
2018-Jun-18 12:29N 40°39' W 074°02'0 0.0
2018-Jun-18 12:00N 40°39' W 074°02'2 4.3
2018-Jun-18 11:30N 40°40' W 074°04'1 1.0
2018-Jun-18 11:00N 40°40' W 074°04'4 7.7
2018-Jun-18 10:25N 40°38' W 074°10'0 0.2
2018-Jun-18 10:00N 40°38' W 074°10'  
2018-Jun-15 13:50N 40°39' W 074°07'2 5.9
2018-Jun-15 13:30N 40°39' W 074°05'1 2.9
2018-Jun-15 13:00N 40°41' W 074°04'2 3.1
2018-Jun-15 12:31N 40°40' W 074°03'1 2.4
2018-Jun-15 12:00N 40°39' W 074°02'0 0.1
2018-Jun-15 11:31N 40°39' W 074°02'3 5.2
2018-Jun-15 11:01N 40°41' W 074°04'5 0.3
2018-Jun-14 19:22N 40°38' W 074°10'1 1.4
2018-Jun-14 19:00N 40°39' W 074°09'0 0.6
2018-Jun-14 18:30N 40°39' W 074°09'4 8.0
2018-Jun-14 18:00N 40°40' W 074°04'0 0.8
2018-Jun-14 17:30N 40°40' W 074°04'2 4.3
2018-Jun-14 17:00N 40°39' W 074°02'0 0.2
2018-Jun-14 16:30N 40°39' W 074°02'2 4.2
2018-Jun-14 16:00N 40°40' W 074°04'1 1.4
2018-Jun-14 15:30N 40°41' W 074°04'1 2.3
2018-Jun-14 15:00N 40°40' W 074°03'2 3.2
2018-Jun-14 14:30N 40°39' W 074°02'0 0.1
2018-Jun-14 14:00N 40°39' W 074°02'2 4.9
2018-Jun-14 13:30N 40°41' W 074°04'0 0.5
2018-Jun-14 13:00N 40°41' W 074°04'1 2.8
2018-Jun-14 12:30N 40°40' W 074°03'1 2.6
2018-Jun-14 12:00N 40°39' W 074°02'0 0.0
2018-Jun-14 11:30N 40°39' W 074°02'2 4.9
2018-Jun-14 11:00N 40°41' W 074°04'1 2.9
2018-Jun-14 10:30N 40°39' W 074°05'2 0.1
2018-Jun-13 18:21N 40°41' W 074°04'1 1.9
2018-Jun-13 18:00N 40°40' W 074°04'2 4.1
2018-Jun-13 17:30N 40°39' W 074°02'0 0.1
2018-Jun-13 17:00N 40°39' W 074°02'2 3.1
2018-Jun-13 16:30N 40°40' W 074°03'1 2.5
2018-Jun-13 16:00N 40°41' W 074°04'0 0.1
2018-Jun-13 15:30N 40°41' W 074°04'3 5.1
2018-Jun-13 15:00N 40°39' W 074°02'0 0.3
2018-Jun-13 14:30N 40°39' W 074°02'2 3.4
2018-Jun-13 14:00N 40°40' W 074°03'1 2.1
2018-Jun-13 13:30N 40°41' W 074°04'0 0.0
2018-Jun-13 13:00N 40°41' W 074°04'2 4.3
2018-Jun-13 12:30N 40°39' W 074°02'1 1.2
2018-Jun-13 12:00N 40°39' W 074°02'0 0.2
2018-Jun-13 11:30N 40°39' W 074°02'3 5.1
2018-Jun-13 11:00N 40°41' W 074°04'6 0.5
2018-Jun-12 22:06N 40°39' W 074°12'0 0.6
2018-Jun-12 22:00N 40°39' W 074°11'4 7.2
2018-Jun-12 21:28N 40°39' W 074°06'3 7.1
2018-Jun-12 21:00N 40°40' W 074°03'2 3.8
2018-Jun-12 20:30N 40°41' W 074°00'1 1.9
2018-Jun-12 19:59N 40°42' W 074°00'0 0.6
2018-Jun-12 19:30N 40°42' W 074°00'3 5.5
2018-Jun-12 19:00N 40°44' W 073°58'  
Track history (hours):
 
Tides and Currents Weather Stations Pressure Air Temp Water Temp Dewpoint Dewpoint Depression Visibility Wind Speed Wind Dir Waves Ship Positions

James E. Brown

Owner: Thomas J. Brown and Sons, Inc., Statten Island, NY. More information available from US FCC via Universal Licensing System and Coast Guard Vessel Documentation Center.

Last reported at 2018-Jun-22 11:57 UTC. Time now 2018-Jun-23 17:32 UTC.
Position N 40°38' W 074°12'.

Length 19 m; draft 4 m.

Type: Tug. MMSI: 367669920.

Date/timePositionNaut miles runAvg speedWind from/ knotsBaromVisibWave heightAir tempDewpointWater temp
2018-Jun-22 11:57N 40°38' W 074°12'1 2.6
2018-Jun-22 11:29N 40°39' W 074°11'1 1.7
2018-Jun-22 10:57N 40°38' W 074°10'1 0.1
2018-Jun-21 16:48N 40°39' W 074°08'2 7.1
2018-Jun-21 16:31N 40°39' W 074°05'2 3.6
2018-Jun-21 16:00N 40°41' W 074°04'1 2.5
2018-Jun-21 15:30N 40°40' W 074°03'1 3.0
2018-Jun-21 15:01N 40°39' W 074°02'0 0.0
2018-Jun-21 14:30N 40°39' W 074°02'2 3.8
2018-Jun-21 14:01N 40°40' W 074°04'1 1.7
2018-Jun-21 13:31N 40°41' W 074°04'0 0.0
2018-Jun-21 13:01N 40°41' W 074°04'2 3.3
2018-Jun-21 12:31N 40°40' W 074°03'1 2.4
2018-Jun-21 12:01N 40°39' W 074°02'0 0.8
2018-Jun-21 11:30N 40°39' W 074°02'2 4.7
2018-Jun-21 11:01N 40°41' W 074°04'0 0.8
2018-Jun-21 10:30N 40°40' W 074°04'3 6.8
2018-Jun-21 10:00N 40°39' W 074°08'2 0.1
2018-Jun-20 18:54N 40°39' W 074°06'3 8.4
2018-Jun-20 18:30N 40°40' W 074°02'0 0.7
2018-Jun-20 18:00N 40°40' W 074°02'4 7.1
2018-Jun-20 17:29N 40°39' W 074°07'4 6.0
2018-Jun-20 16:52N 40°39' W 074°11'1 3.0
2018-Jun-20 16:27N 40°39' W 074°10'0 0.6
2018-Jun-20 16:00N 40°38' W 074°10'0 0.0
2018-Jun-20 15:31N 40°38' W 074°10'0 0.6
2018-Jun-20 15:00N 40°38' W 074°09'0 0.3
2018-Jun-20 14:30N 40°39' W 074°09'0 0.3
2018-Jun-20 13:51N 40°39' W 074°09'3 8.1
2018-Jun-20 13:30N 40°39' W 074°05'2 3.7
2018-Jun-20 13:00N 40°41' W 074°04'1 2.7
2018-Jun-20 12:30N 40°40' W 074°03'1 2.9
2018-Jun-20 12:00N 40°39' W 074°02'0 0.1
2018-Jun-20 11:30N 40°39' W 074°02'3 5.1
2018-Jun-20 11:00N 40°41' W 074°04'1 1.5
2018-Jun-20 10:30N 40°40' W 074°04'4 7.6
2018-Jun-20 10:00N 40°38' W 074°09'0 0.0
2018-Jun-19 14:56N 40°38' W 074°09'3 7.6
2018-Jun-19 14:30N 40°39' W 074°05'1 2.9
2018-Jun-19 14:00N 40°41' W 074°04'2 3.3
2018-Jun-19 13:30N 40°40' W 074°03'1 2.2
2018-Jun-19 13:00N 40°39' W 074°02'0 0.0
2018-Jun-19 12:30N 40°39' W 074°02'2 3.2
2018-Jun-19 12:00N 40°40' W 074°03'1 2.4
2018-Jun-19 11:30N 40°41' W 074°04'1 1.6
2018-Jun-19 11:00N 40°40' W 074°04'4 8.0
2018-Jun-19 10:30N 40°38' W 074°09'1 1.4
2018-Jun-19 10:00N 40°38' W 074°10'1 0.1
2018-Jun-18 16:50N 40°39' W 074°09'3 8.7
2018-Jun-18 16:30N 40°39' W 074°05'2 3.4
2018-Jun-18 16:00N 40°41' W 074°04'3 5.1
2018-Jun-18 15:30N 40°39' W 074°02'0 0.3
2018-Jun-18 14:55N 40°39' W 074°02'1 2.5
2018-Jun-18 14:30N 40°40' W 074°03'2 3.5
2018-Jun-18 14:00N 40°41' W 074°04'0 0.0
2018-Jun-18 13:30N 40°41' W 074°04'2 4.0
2018-Jun-18 13:00N 40°39' W 074°02'1 1.3
2018-Jun-18 12:29N 40°39' W 074°02'0 0.0
2018-Jun-18 12:00N 40°39' W 074°02'2 4.3
2018-Jun-18 11:30N 40°40' W 074°04'1 1.0
2018-Jun-18 11:00N 40°40' W 074°04'4 7.7
2018-Jun-18 10:25N 40°38' W 074°10'0 0.2
2018-Jun-18 10:00N 40°38' W 074°10'  
2018-Jun-15 13:50N 40°39' W 074°07'2 5.9
2018-Jun-15 13:30N 40°39' W 074°05'1 2.9
2018-Jun-15 13:00N 40°41' W 074°04'2 3.1
2018-Jun-15 12:31N 40°40' W 074°03'1 2.4
2018-Jun-15 12:00N 40°39' W 074°02'0 0.1
2018-Jun-15 11:31N 40°39' W 074°02'3 5.2
2018-Jun-15 11:01N 40°41' W 074°04'5 0.3
2018-Jun-14 19:22N 40°38' W 074°10'1 1.4
2018-Jun-14 19:00N 40°39' W 074°09'0 0.6
2018-Jun-14 18:30N 40°39' W 074°09'4 8.0
2018-Jun-14 18:00N 40°40' W 074°04'0 0.8
2018-Jun-14 17:30N 40°40' W 074°04'2 4.3
2018-Jun-14 17:00N 40°39' W 074°02'0 0.2
2018-Jun-14 16:30N 40°39' W 074°02'2 4.2
2018-Jun-14 16:00N 40°40' W 074°04'1 1.4
2018-Jun-14 15:30N 40°41' W 074°04'1 2.3
2018-Jun-14 15:00N 40°40' W 074°03'2 3.2
2018-Jun-14 14:30N 40°39' W 074°02'0 0.1
2018-Jun-14 14:00N 40°39' W 074°02'2 4.9
2018-Jun-14 13:30N 40°41' W 074°04'0 0.5
2018-Jun-14 13:00N 40°41' W 074°04'1 2.8
2018-Jun-14 12:30N 40°40' W 074°03'1 2.6
2018-Jun-14 12:00N 40°39' W 074°02'0 0.0
2018-Jun-14 11:30N 40°39' W 074°02'2 4.9
2018-Jun-14 11:00N 40°41' W 074°04'1 2.9
2018-Jun-14 10:30N 40°39' W 074°05'2 0.1
2018-Jun-13 18:21N 40°41' W 074°04'1 1.9
2018-Jun-13 18:00N 40°40' W 074°04'2 4.1
2018-Jun-13 17:30N 40°39' W 074°02'0 0.1
2018-Jun-13 17:00N 40°39' W 074°02'2 3.1
2018-Jun-13 16:30N 40°40' W 074°03'1 2.5
2018-Jun-13 16:00N 40°41' W 074°04'0 0.1
2018-Jun-13 15:30N 40°41' W 074°04'3 5.1
2018-Jun-13 15:00N 40°39' W 074°02'0 0.3
2018-Jun-13 14:30N 40°39' W 074°02'2 3.4
2018-Jun-13 14:00N 40°40' W 074°03'1 2.1
2018-Jun-13 13:30N 40°41' W 074°04'0 0.0
2018-Jun-13 13:00N 40°41' W 074°04'2 4.3
2018-Jun-13 12:30N 40°39' W 074°02'1 1.2
2018-Jun-13 12:00N 40°39' W 074°02'0 0.2
2018-Jun-13 11:30N 40°39' W 074°02'3 5.1
2018-Jun-13 11:00N 40°41' W 074°04'6 0.5
2018-Jun-12 22:06N 40°39' W 074°12'0 0.6
2018-Jun-12 22:00N 40°39' W 074°11'4 7.2
2018-Jun-12 21:28N 40°39' W 074°06'3 7.1
2018-Jun-12 21:00N 40°40' W 074°03'2 3.8
2018-Jun-12 20:30N 40°41' W 074°00'1 1.9
2018-Jun-12 19:59N 40°42' W 074°00'0 0.6
2018-Jun-12 19:30N 40°42' W 074°00'3 5.5
2018-Jun-12 19:00N 40°44' W 073°58'  

Dump ship's entire track history